Pagina principale
METAR-TAF:

METAR-TAF

Aeroporti :

Mont-De-Marsan, Francia

latitudine: 43-55N, longitudine: 000-30W, altezza: 62 m

Osservazione

Il bollettino è stato emesso 33 minuti fa, alle 13:00 UTC
Vento 4 kt da est, variando fra nord/nord-est e sud
Temperature 24°C
Umidità 47%
Pressione 1020 hPa
Visibilità 10 km o più
nessuna nube inferiore a 1500 m e nessun cumulonembo

METAR: LFBM 161300Z AUTO 10004KT 030V170 CAVOK 24/12 Q1020

Ora: 15:33 (13:33 UTC)

Previsione

Il bollettino è stato emesso 11 ore e 33 minuti fa, alle 02:00 UTC
Previsione valida dal 16 alle 03 UTC al 17 alle 03 UTC
Vento 3 kt da nord/nord-ovest
Visibilità 10 km o più
nessuna nube inferiore a 1500 m e nessun cumulonembo
Probabilità 30% :
Temporaneamente
dal 16 alle 03 UTC al 16 alle 06 UTC
Visibilità: 3000 m
foschia
Evoluzione graduale
dal 16 alle 03 UTC al 16 alle 06 UTC
Vento 5 kt da est

TAF: LFBM 160200Z 1603/1703 33003KT CAVOK PROB30 TEMPO 1603/1606 3000 BR BECMG 1603/1606 09005KT

Osservazioni e previsioni meteorologiche di più di 4000 aeroporti (messaggi METAR e TAF).

Le stazioni disponibili sono rappresentate dai dischi gialli e rossi sulla carta.

Puntare il mouse per vedere il nome della stazione.

Clicca sopra per visualizzare le osservazioni e previsioni meteorologiche.

Per cambiare la mappa : fare clic sui pulsanti verdi con una croce nera per ingrandire, il pulsante verde con un trattino per diminuire, o sulla freccia verde per le mappe adiacenti.


METAR-TAF: